createdAt,value
2023-01-07T00:01:16.296Z,101187.22
2023-01-07T00:03:44.147Z,101180.13
2023-01-07T00:06:25.531Z,101177.44
2023-01-07T00:08:55.930Z,101175.50
2023-01-07T00:11:29.556Z,101171.94
2023-01-07T00:13:59.217Z,101169.91
2023-01-07T00:16:29.897Z,101171.84
2023-01-07T00:18:59.679Z,101161.09
2023-01-07T00:21:28.207Z,101167.63
2023-01-07T00:24:01.634Z,101165.91
2023-01-07T00:26:33.390Z,101155.13
2023-01-07T00:29:00.753Z,101156.03
2023-01-07T00:31:34.752Z,101160.53
2023-01-07T00:34:02.304Z,101150.84
2023-01-07T00:36:49.699Z,101155.69
2023-01-07T00:39:21.157Z,101150.06
2023-01-07T00:42:27.723Z,101154.47
2023-01-07T00:44:54.612Z,101148.34
2023-01-07T00:47:21.614Z,101143.72
2023-01-07T00:49:48.505Z,101140.19
2023-01-07T00:52:15.444Z,101142.56
2023-01-07T00:54:42.553Z,101146.88
2023-01-07T00:57:13.840Z,101143.00
2023-01-07T00:59:40.826Z,101137.41
2023-01-07T01:02:07.930Z,101138.06
2023-01-07T01:04:35.060Z,101127.13
2023-01-07T01:07:01.983Z,101123.47
2023-01-07T01:09:29.346Z,101128.72
2023-01-07T01:11:56.249Z,101131.28
2023-01-07T01:14:23.631Z,101129.38
2023-01-07T01:16:50.569Z,101132.06
2023-01-07T01:19:17.489Z,101126.69
2023-01-07T01:21:44.428Z,101127.75
2023-01-07T01:24:11.367Z,101127.53
2023-01-07T01:26:38.406Z,101130.97
2023-01-07T01:29:05.360Z,101127.22
2023-01-07T01:31:33.622Z,101130.66
2023-01-07T01:34:00.644Z,101123.56
2023-01-07T01:36:27.612Z,101129.06
2023-01-07T01:38:57.496Z,101129.81
2023-01-07T01:41:26.988Z,101136.16
2023-01-07T01:43:55.453Z,101130.03
2023-01-07T01:46:45.126Z,101132.59
2023-01-07T01:49:27.845Z,101136.16
2023-01-07T01:52:09.409Z,101117.66
2023-01-07T01:54:36.378Z,101133.69
2023-01-07T01:57:06.998Z,101128.19
2023-01-07T01:59:39.711Z,101121.09
2023-01-07T02:02:10.727Z,101114.84
2023-01-07T02:04:38.166Z,101116.56
2023-01-07T02:07:17.044Z,101126.47
2023-01-07T02:10:00.259Z,101130.78
2023-01-07T02:13:17.391Z,101129.59
2023-01-07T02:16:13.514Z,101131.19
2023-01-07T02:18:52.147Z,101130.22
2023-01-07T02:21:52.613Z,101116.56
2023-01-07T02:24:54.049Z,101111.84
2023-01-07T02:28:00.301Z,101124.97
2023-01-07T02:31:13.446Z,101117.56
2023-01-07T02:34:02.828Z,101106.91
2023-01-07T02:37:10.533Z,101114.41
2023-01-07T02:40:08.287Z,101122.28
2023-01-07T02:43:03.401Z,101110.44
2023-01-07T02:46:02.925Z,101112.03
2023-01-07T02:48:31.477Z,101093.13
2023-01-07T02:50:58.421Z,101098.38
2023-01-07T02:53:25.478Z,101089.22
2023-01-07T02:56:24.648Z,101094.41
2023-01-07T02:59:29.971Z,101077.47
2023-01-07T03:02:37.048Z,101080.81
2023-01-07T03:05:48.643Z,101069.19
2023-01-07T03:08:47.026Z,101069.19
2023-01-07T03:11:15.900Z,101070.03
2023-01-07T03:14:00.055Z,101068.31
2023-01-07T03:16:36.808Z,101073.59
2023-01-07T03:19:17.439Z,101067.97
2023-01-07T03:21:47.836Z,101067.97
2023-01-07T03:24:16.927Z,101070.78
2023-01-07T03:26:49.053Z,101062.94
2023-01-07T03:29:17.908Z,101074.47
2023-01-07T03:32:34.505Z,101057.66
2023-01-07T03:35:01.898Z,101054.97
2023-01-07T03:37:31.097Z,101065.94
2023-01-07T03:40:00.001Z,101056.91
2023-01-07T03:42:40.265Z,101053.38
2023-01-07T03:45:22.748Z,101053.44
2023-01-07T03:47:53.421Z,101052.41
2023-01-07T03:50:21.385Z,101046.25
2023-01-07T03:52:49.255Z,101044.31
2023-01-07T03:55:18.073Z,101047.00
2023-01-07T03:57:45.883Z,101031.69
2023-01-07T04:00:14.332Z,101038.19
2023-01-07T04:02:42.755Z,101024.72
2023-01-07T04:05:18.547Z,101029.34
2023-01-07T04:07:45.865Z,101026.66
2023-01-07T04:10:13.087Z,101031.91
2023-01-07T04:12:40.039Z,101024.91
2023-01-07T04:15:08.111Z,101023.94
2023-01-07T04:17:35.090Z,101022.56
2023-01-07T04:20:02.163Z,101013.84
2023-01-07T04:22:29.297Z,101019.34
2023-01-07T04:24:56.313Z,101013.00
2023-01-07T04:27:24.126Z,101006.09
2023-01-07T04:29:52.007Z,101008.06
2023-01-07T04:32:20.077Z,101011.72
2023-01-07T04:34:47.023Z,101009.88
2023-01-07T04:37:14.051Z,101005.47
2023-01-07T04:39:40.998Z,101008.28
2023-01-07T04:42:08.003Z,100994.81
2023-01-07T04:44:34.982Z,100998.59
2023-01-07T04:47:02.074Z,100992.13
2023-01-07T04:49:28.963Z,100997.72
2023-01-07T04:51:56.023Z,100998.59
2023-01-07T04:54:23.167Z,100988.66
2023-01-07T04:56:50.431Z,100998.47
2023-01-07T04:59:17.960Z,100986.94
2023-01-07T05:01:45.104Z,100997.63
2023-01-07T05:04:12.603Z,100983.28
2023-01-07T05:06:41.087Z,100993.72
2023-01-07T05:09:08.724Z,100987.59
2023-01-07T05:11:35.672Z,100985.66
2023-01-07T05:14:04.863Z,100986.28
2023-01-07T05:16:33.676Z,100989.94
2023-01-07T05:19:05.134Z,100984.34
2023-01-07T05:21:36.545Z,100980.06
2023-01-07T05:24:04.121Z,100976.16
2023-01-07T05:26:31.202Z,100978.09
2023-01-07T05:28:58.194Z,100975.41
2023-01-07T05:31:25.575Z,100982.75
2023-01-07T05:33:52.722Z,100979.94
2023-01-07T05:36:19.747Z,100971.00
2023-01-07T05:38:46.724Z,100977.03
2023-01-07T05:41:13.669Z,100982.50
2023-01-07T05:43:40.686Z,100985.19
2023-01-07T05:46:07.686Z,100975.41
2023-01-07T05:48:34.753Z,100970.00
2023-01-07T05:51:01.692Z,100975.41
2023-01-07T05:53:28.627Z,100977.13
2023-01-07T05:55:57.515Z,100975.31
2023-01-07T05:58:24.712Z,100980.78
2023-01-07T06:00:51.654Z,100974.69
2023-01-07T06:03:18.622Z,100964.88
2023-01-07T06:05:45.668Z,100971.88
2023-01-07T06:08:12.610Z,100960.59
2023-01-07T06:10:40.203Z,100964.13
2023-01-07T06:13:07.250Z,100965.31
2023-01-07T06:15:34.203Z,100972.31
2023-01-07T06:18:01.134Z,100968.22
2023-01-07T06:20:29.703Z,100960.38
2023-01-07T06:22:56.588Z,100969.31
2023-01-07T06:25:23.548Z,100972.84
2023-01-07T06:27:52.943Z,100966.31
2023-01-07T06:30:19.915Z,100967.72
2023-01-07T06:32:46.949Z,100966.06
2023-01-07T06:35:13.923Z,100960.69
2023-01-07T06:37:40.869Z,100955.88
2023-01-07T06:40:08.950Z,100954.28
2023-01-07T06:42:35.883Z,100960.19
2023-01-07T06:45:02.854Z,100953.41
2023-01-07T06:47:29.806Z,100948.97
2023-01-07T06:49:56.774Z,100947.59
2023-01-07T06:52:23.720Z,100953.09
2023-01-07T06:54:50.633Z,100946.94
2023-01-07T06:57:17.584Z,100934.81
2023-01-07T06:59:44.538Z,100947.19
2023-01-07T07:02:24.329Z,100947.19
2023-01-07T07:04:51.322Z,100943.75
2023-01-07T07:07:18.947Z,100942.13
2023-01-07T07:09:46.513Z,100933.31
2023-01-07T07:12:14.436Z,100932.66
2023-01-07T07:14:41.365Z,100928.69
2023-01-07T07:17:08.285Z,100929.22
2023-01-07T07:19:35.429Z,100931.25
2023-01-07T07:22:04.002Z,100926.00
2023-01-07T07:24:31.733Z,100936.75
2023-01-07T07:26:59.989Z,100930.75
2023-01-07T07:29:27.183Z,100943.22
2023-01-07T07:31:54.080Z,100929.47
2023-01-07T07:34:21.039Z,100941.50
2023-01-07T07:36:48.103Z,100940.75
2023-01-07T07:39:15.659Z,100933.88
2023-01-07T07:41:42.643Z,100926.13
2023-01-07T07:44:10.393Z,100936.44
2023-01-07T07:46:37.444Z,100931.28
2023-01-07T07:49:05.975Z,100925.38
2023-01-07T07:51:33.462Z,100935.16
2023-01-07T07:54:00.390Z,100936.00
2023-01-07T07:56:27.390Z,100932.47
2023-01-07T07:58:54.472Z,100939.56
2023-01-07T08:01:21.932Z,100937.53
2023-01-07T08:03:49.057Z,100924.59
2023-01-07T08:06:16.193Z,100925.44
2023-01-07T08:08:43.203Z,100923.66
2023-01-07T08:11:10.246Z,100937.19
2023-01-07T08:13:37.154Z,100934.41
2023-01-07T08:16:04.197Z,100931.72
2023-01-07T08:18:31.169Z,100938.69
2023-01-07T08:20:58.161Z,100936.75
2023-01-07T08:23:27.904Z,100926.84
2023-01-07T08:25:59.227Z,100932.53
2023-01-07T08:28:26.193Z,100928.03
2023-01-07T08:30:53.233Z,100922.53
2023-01-07T08:33:20.210Z,100917.47
2023-01-07T08:35:47.222Z,100926.19
2023-01-07T08:38:14.966Z,100913.38
2023-01-07T08:40:41.935Z,100912.06
2023-01-07T08:43:09.116Z,100916.28
2023-01-07T08:45:36.816Z,100910.13
2023-01-07T08:48:04.783Z,100919.59
2023-01-07T08:50:33.831Z,100910.91
2023-01-07T08:53:00.819Z,100916.66
2023-01-07T08:55:28.158Z,100916.59
2023-01-07T08:57:55.137Z,100913.88
2023-01-07T09:00:22.146Z,100911.28
2023-01-07T09:02:49.193Z,100901.50
2023-01-07T09:05:16.836Z,100914.41
2023-01-07T09:07:43.910Z,100904.47
2023-01-07T09:10:11.735Z,100913.09
2023-01-07T09:12:38.765Z,100900.72
2023-01-07T09:15:06.602Z,100910.41
2023-01-07T09:17:33.661Z,100902.41
2023-01-07T09:20:03.604Z,100906.84
2023-01-07T09:22:36.074Z,100906.84
2023-01-07T09:25:04.165Z,100909.53
2023-01-07T09:27:31.094Z,100903.19
2023-01-07T09:29:58.720Z,100894.47
2023-01-07T09:32:26.824Z,100888.25
2023-01-07T09:34:53.838Z,100896.81
2023-01-07T09:37:21.249Z,100896.63
2023-01-07T09:39:48.294Z,100884.25
2023-01-07T09:42:43.285Z,100897.13
2023-01-07T09:45:34.830Z,100896.78
2023-01-07T09:48:44.188Z,100892.16
2023-01-07T09:51:39.047Z,100892.03
2023-01-07T09:54:30.379Z,100888.16
2023-01-07T09:56:57.495Z,100878.34
2023-01-07T09:59:24.451Z,100874.44
2023-01-07T10:02:28.329Z,100880.97
2023-01-07T10:05:37.906Z,100882.44
2023-01-07T10:09:07.549Z,100878.78
2023-01-07T10:12:20.420Z,100875.00
2023-01-07T10:15:26.714Z,100869.63
2023-01-07T10:18:19.284Z,100866.06
2023-01-07T10:21:16.745Z,100862.50
2023-01-07T10:24:09.350Z,100862.50
2023-01-07T10:26:46.224Z,100859.81
2023-01-07T10:29:42.094Z,100856.16
2023-01-07T10:32:16.538Z,100849.66
2023-01-07T10:34:47.819Z,100855.94
2023-01-07T10:37:32.997Z,100851.63
2023-01-07T10:40:24.684Z,100853.00
2023-01-07T10:43:18.897Z,100830.19
2023-01-07T10:46:09.588Z,100837.56
2023-01-07T10:49:11.672Z,100831.06
2023-01-07T10:52:11.606Z,100833.69
2023-01-07T10:55:00.076Z,100820.22
2023-01-07T10:57:30.613Z,100818.97
2023-01-07T11:00:06.156Z,100808.19
2023-01-07T11:02:33.171Z,100809.91
2023-01-07T11:05:00.548Z,100806.13
2023-01-07T11:07:40.895Z,100802.38
2023-01-07T11:10:19.315Z,100804.81
2023-01-07T11:13:19.350Z,100802.22
2023-01-07T11:15:53.296Z,100802.22
2023-01-07T11:18:43.573Z,100788.00
2023-01-07T11:21:42.941Z,100783.75
2023-01-07T11:23:58.276Z,100775.63
2023-01-07T11:26:30.403Z,100767.47
2023-01-07T11:29:02.855Z,100764.00
2023-01-07T11:31:54.900Z,100758.50
2023-01-07T11:34:37.514Z,100740.69
2023-01-07T11:37:05.694Z,100734.66
2023-01-07T11:39:35.282Z,100748.63
2023-01-07T11:42:38.234Z,100740.13
2023-01-07T11:45:34.454Z,100731.56
2023-01-07T11:48:21.979Z,100717.22
2023-01-07T11:50:57.838Z,100717.53
2023-01-07T11:53:41.742Z,100715.41
2023-01-07T11:56:13.804Z,100715.00
2023-01-07T11:58:45.633Z,100703.44
2023-01-07T12:01:24.895Z,100705.19
2023-01-07T12:03:51.694Z,100698.75
2023-01-07T12:06:27.391Z,100690.59
2023-01-07T12:09:20.795Z,100684.81
2023-01-07T12:11:48.168Z,100677.44
2023-01-07T12:14:24.997Z,100678.66
2023-01-07T12:16:53.032Z,100668.38
2023-01-07T12:19:47.520Z,100661.91
2023-01-07T12:22:51.045Z,100657.28
2023-01-07T12:25:54.557Z,100645.66
2023-01-07T12:29:26.072Z,100651.16
2023-01-07T12:32:08.451Z,100644.03
2023-01-07T12:34:58.775Z,100632.41
2023-01-07T12:38:04.929Z,100622.75
2023-01-07T12:40:58.256Z,100607.63
2023-01-07T12:43:37.938Z,100610.47
2023-01-07T12:46:13.871Z,100602.38
2023-01-07T12:49:07.975Z,100592.44
2023-01-07T12:51:45.471Z,100590.47
2023-01-07T12:54:39.087Z,100591.34
2023-01-07T12:57:28.604Z,100586.22
2023-01-07T13:00:15.939Z,100574.81
2023-01-07T13:03:23.613Z,100577.28
2023-01-07T13:06:44.443Z,100576.25
2023-01-07T13:09:24.494Z,100573.47
2023-01-07T13:12:41.435Z,100572.47
2023-01-07T13:15:33.898Z,100570.47
2023-01-07T13:18:18.760Z,100578.09
2023-01-07T13:20:57.644Z,100559.72
2023-01-07T13:23:43.027Z,100563.03
2023-01-07T13:26:14.725Z,100557.16
2023-01-07T13:29:21.698Z,100553.59
2023-01-07T13:32:03.769Z,100541.88
2023-01-07T13:34:55.089Z,100541.41
2023-01-07T13:37:41.054Z,100532.81
2023-01-07T13:40:44.309Z,100535.44
2023-01-07T13:43:57.636Z,100526.75
2023-01-07T13:46:35.580Z,100520.75
2023-01-07T13:49:02.785Z,100531.31
2023-01-07T13:51:36.899Z,100515.94
2023-01-07T13:54:04.536Z,100524.03
2023-01-07T13:56:35.535Z,100516.34
2023-01-07T13:59:03.615Z,100515.50
2023-01-07T14:01:34.136Z,100508.53
2023-01-07T14:04:04.127Z,100512.47
2023-01-07T14:06:43.023Z,100501.63
2023-01-07T14:09:23.397Z,100504.13
2023-01-07T14:12:30.172Z,100496.78
2023-01-07T14:15:17.610Z,100504.66
2023-01-07T14:18:11.201Z,100484.25
2023-01-07T14:21:38.709Z,100486.38
2023-01-07T14:24:42.802Z,100482.22
2023-01-07T14:27:37.058Z,100475.78
2023-01-07T14:30:20.727Z,100476.16
2023-01-07T14:33:00.619Z,100464.91
2023-01-07T14:35:38.305Z,100475.22
2023-01-07T14:38:26.901Z,100465.72
2023-01-07T14:41:11.426Z,100471.13
2023-01-07T14:43:45.406Z,100467.09
2023-01-07T14:46:24.301Z,100466.66
2023-01-07T14:49:03.265Z,100458.34
2023-01-07T14:52:14.084Z,100454.91
2023-01-07T14:55:08.309Z,100455.13
2023-01-07T14:58:09.803Z,100435.94
2023-01-07T15:01:04.412Z,100437.63
2023-01-07T15:04:11.116Z,100431.78
2023-01-07T15:06:41.868Z,100434.13
2023-01-07T15:09:43.123Z,100436.13
2023-01-07T15:12:38.242Z,100441.00
2023-01-07T15:15:39.766Z,100433.31
2023-01-07T15:18:09.433Z,100410.69
2023-01-07T15:21:08.494Z,100430.88
2023-01-07T15:24:28.709Z,100411.53
2023-01-07T15:27:36.490Z,100429.66
2023-01-07T15:30:36.914Z,100429.06
2023-01-07T15:33:41.201Z,100422.81
2023-01-07T15:36:13.371Z,100408.38
2023-01-07T15:38:44.573Z,100409.13
2023-01-07T15:41:37.377Z,100405.69
2023-01-07T15:44:07.941Z,100399.56
2023-01-07T15:46:40.636Z,100391.50
2023-01-07T15:49:10.321Z,100390.66
2023-01-07T15:51:44.698Z,100377.94
2023-01-07T15:54:38.227Z,100367.94
2023-01-07T15:57:18.886Z,100371.25
2023-01-07T15:59:52.040Z,100369.06
2023-01-07T16:02:42.772Z,100379.22
2023-01-07T16:05:10.654Z,100371.66
2023-01-07T16:07:56.547Z,100371.75
2023-01-07T16:10:33.038Z,100366.88
2023-01-07T16:13:18.209Z,100370.09
2023-01-07T16:15:45.131Z,100359.94
2023-01-07T16:18:13.355Z,100363.59
2023-01-07T16:20:53.771Z,100358.84
2023-01-07T16:23:25.188Z,100363.72
2023-01-07T16:26:01.559Z,100348.97
2023-01-07T16:28:44.806Z,100348.34
2023-01-07T16:31:14.715Z,100343.81
2023-01-07T16:33:43.152Z,100343.94
2023-01-07T16:36:31.980Z,100336.13
2023-01-07T16:39:04.927Z,100322.06
2023-01-07T16:41:32.226Z,100323.78
2023-01-07T16:44:00.817Z,100315.72
2023-01-07T16:46:38.804Z,100325.50
2023-01-07T16:49:11.289Z,100324.00
2023-01-07T16:51:50.802Z,100314.38
2023-01-07T16:54:34.336Z,100321.81
2023-01-07T16:57:11.375Z,100319.38
2023-01-07T16:59:45.917Z,100314.88
2023-01-07T17:02:30.647Z,100316.59
2023-01-07T17:05:33.688Z,100316.44
2023-01-07T17:08:08.041Z,100315.34
2023-01-07T17:10:40.561Z,100305.81
2023-01-07T17:13:32.839Z,100301.53
2023-01-07T17:16:32.956Z,100305.94
2023-01-07T17:19:27.718Z,100296.88
2023-01-07T17:21:56.617Z,100290.25
2023-01-07T17:24:47.224Z,100286.59
2023-01-07T17:27:26.644Z,100289.53
2023-01-07T17:29:53.917Z,100273.78
2023-01-07T17:32:21.555Z,100275.25
2023-01-07T17:34:48.690Z,100267.44
2023-01-07T17:37:17.211Z,100271.09
2023-01-07T17:39:44.719Z,100266.19
2023-01-07T17:42:56.550Z,100249.00
2023-01-07T17:45:23.459Z,100255.72
2023-01-07T17:47:50.411Z,100259.50
2023-01-07T17:50:19.819Z,100243.84
2023-01-07T17:52:50.241Z,100247.28
2023-01-07T17:55:28.058Z,100243.25
2023-01-07T17:57:55.241Z,100242.78
2023-01-07T18:00:26.572Z,100249.84
2023-01-07T18:02:53.844Z,100233.47
2023-01-07T18:05:23.779Z,100261.31
2023-01-07T18:07:52.221Z,100255.94
2023-01-07T18:10:25.209Z,100243.25
2023-01-07T18:12:52.185Z,100249.72
2023-01-07T18:15:27.898Z,100249.72
2023-01-07T18:17:54.808Z,100247.88
2023-01-07T18:20:23.037Z,100231.28
2023-01-07T18:22:50.401Z,100225.53
2023-01-07T18:25:22.233Z,100247.13
2023-01-07T18:27:52.760Z,100240.56
2023-01-07T18:30:22.206Z,100237.13
2023-01-07T18:32:51.266Z,100222.97
2023-01-07T18:35:19.129Z,100216.16
2023-01-07T18:37:50.347Z,100238.34
2023-01-07T18:40:17.975Z,100233.84
2023-01-07T18:42:44.944Z,100220.91
2023-01-07T18:45:12.769Z,100228.97
2023-01-07T18:47:39.681Z,100221.25
2023-01-07T18:50:07.954Z,100224.47
2023-01-07T18:52:37.040Z,100225.91
2023-01-07T18:55:04.210Z,100227.97
2023-01-07T18:57:31.099Z,100229.47
2023-01-07T18:59:57.996Z,100228.72
2023-01-07T19:02:24.885Z,100238.13
2023-01-07T19:04:51.871Z,100222.47
2023-01-07T19:07:19.280Z,100238.84
2023-01-07T19:09:46.457Z,100233.13
2023-01-07T19:12:13.456Z,100231.28
2023-01-07T19:14:40.843Z,100232.75
2023-01-07T19:17:08.505Z,100228.59
2023-01-07T19:19:47.441Z,100223.34
2023-01-07T19:22:16.231Z,100218.94
2023-01-07T19:24:43.843Z,100206.50
2023-01-07T19:27:11.256Z,100211.50
2023-01-07T19:29:38.933Z,100203.66
2023-01-07T19:32:05.967Z,100192.22
2023-01-07T19:34:32.915Z,100189.63
2023-01-07T19:37:00.319Z,100181.94
2023-01-07T19:39:28.488Z,100180.97
2023-01-07T19:41:56.360Z,100181.84
2023-01-07T19:44:23.235Z,100173.03
2023-01-07T19:46:50.172Z,100166.94
2023-01-07T19:49:17.111Z,100159.84
2023-01-07T19:51:44.341Z,100164.00
2023-01-07T19:54:16.075Z,100150.44
2023-01-07T19:56:43.717Z,100143.34
2023-01-07T19:59:10.818Z,100127.38
2023-01-07T20:01:38.874Z,100128.47
2023-01-07T20:04:08.317Z,100124.56
2023-01-07T20:06:41.129Z,100132.38
2023-01-07T20:09:10.753Z,100119.06
2023-01-07T20:11:39.132Z,100112.00
2023-01-07T20:14:07.531Z,100127.00
2023-01-07T20:16:36.647Z,100103.78
2023-01-07T20:19:04.827Z,100100.50
2023-01-07T20:21:32.272Z,100099.78
2023-01-07T20:23:59.253Z,100102.84
2023-01-07T20:26:32.360Z,100088.28
2023-01-07T20:29:00.317Z,100069.63
2023-01-07T20:31:30.029Z,100074.16
2023-01-07T20:33:57.883Z,100084.03
2023-01-07T20:36:31.618Z,100074.25
2023-01-07T20:39:05.073Z,100085.00
2023-01-07T20:41:33.897Z,100091.97
2023-01-07T20:44:03.607Z,100099.53
2023-01-07T20:46:33.399Z,100117.00
2023-01-07T20:49:01.010Z,100100.53
2023-01-07T20:51:28.157Z,100110.38
2023-01-07T20:53:55.061Z,100098.78
2023-01-07T20:56:23.449Z,100126.63
2023-01-07T20:58:50.840Z,100115.59
2023-01-07T21:01:21.222Z,100119.63
2023-01-07T21:03:49.073Z,100129.25
2023-01-07T21:06:18.589Z,100124.75
2023-01-07T21:08:47.607Z,100118.28
2023-01-07T21:11:18.896Z,100112.06
2023-01-07T21:13:46.791Z,100110.00
2023-01-07T21:16:16.675Z,100105.72
2023-01-07T21:18:44.339Z,100109.88
2023-01-07T21:21:15.489Z,100100.09
2023-01-07T21:23:42.911Z,100096.66
2023-01-07T21:26:10.557Z,100081.53
2023-01-07T21:28:37.461Z,100087.53
2023-01-07T21:31:08.943Z,100089.09
2023-01-07T21:33:37.618Z,100093.75
2023-01-07T21:36:18.865Z,100086.50
2023-01-07T21:38:47.051Z,100080.16
2023-01-07T21:41:17.245Z,100075.91
2023-01-07T21:43:44.956Z,100073.22
2023-01-07T21:46:12.047Z,100072.09
2023-01-07T21:48:43.993Z,100069.53
2023-01-07T21:51:28.309Z,100065.00
2023-01-07T21:53:57.976Z,100058.66
2023-01-07T21:56:28.755Z,100051.09
2023-01-07T21:58:55.757Z,100051.69
2023-01-07T22:01:28.251Z,100026.69
2023-01-07T22:03:57.135Z,100037.97
2023-01-07T22:06:30.573Z,100032.59
2023-01-07T22:09:00.990Z,100039.41
2023-01-07T22:11:28.519Z,100050.91
2023-01-07T22:13:58.097Z,100046.84
2023-01-07T22:16:28.172Z,100044.16
2023-01-07T22:18:57.039Z,100041.56
2023-01-07T22:21:24.131Z,100048.13
2023-01-07T22:23:52.039Z,100053.13
2023-01-07T22:26:20.117Z,100047.63
2023-01-07T22:28:57.753Z,100048.47
2023-01-07T22:31:31.776Z,100038.97
2023-01-07T22:33:59.099Z,100035.56
2023-01-07T22:36:59.935Z,100037.00
2023-01-07T22:39:33.272Z,100033.47
2023-01-07T22:42:15.213Z,100042.84
2023-01-07T22:44:50.949Z,100036.50
2023-01-07T22:47:24.574Z,100040.00
2023-01-07T22:49:52.687Z,100039.88
2023-01-07T22:52:19.771Z,100038.91
2023-01-07T22:54:46.881Z,100028.41
2023-01-07T22:57:14.684Z,100030.38
2023-01-07T22:59:41.618Z,100048.34
2023-01-07T23:02:08.503Z,100022.38
2023-01-07T23:04:35.408Z,100017.97
2023-01-07T23:07:02.397Z,100033.25
2023-01-07T23:09:29.286Z,100024.59
2023-01-07T23:11:59.503Z,100029.13
2023-01-07T23:14:27.745Z,100020.94
2023-01-07T23:16:55.866Z,100025.72
2023-01-07T23:19:23.059Z,100015.22
2023-01-07T23:21:52.981Z,100028.41
2023-01-07T23:24:20.934Z,100027.53
2023-01-07T23:26:51.135Z,100015.97
2023-01-07T23:29:19.063Z,100020.59
2023-01-07T23:31:46.281Z,100005.00
2023-01-07T23:34:14.924Z,100015.38
2023-01-07T23:36:41.940Z,100001.34
2023-01-07T23:39:08.872Z,99997.03
2023-01-07T23:41:35.830Z,99989.47
2023-01-07T23:44:02.801Z,99991.41
2023-01-07T23:46:29.771Z,99980.22
2023-01-07T23:48:56.685Z,99977.97
2023-01-07T23:51:23.628Z,99991.16
2023-01-07T23:53:51.470Z,99991.28
2023-01-07T23:56:20.402Z,100002.75
2023-01-07T23:58:48.533Z,100008.00
